createdAt,value
2023-03-11T00:00:47.334Z,5.13
2023-03-11T00:03:16.987Z,4.80
2023-03-11T00:05:46.684Z,4.90
2023-03-11T00:08:17.197Z,5.55
2023-03-11T00:10:46.076Z,5.30
2023-03-11T00:13:15.642Z,5.63
2023-03-11T00:15:45.793Z,6.18
2023-03-11T00:18:13.485Z,5.65
2023-03-11T00:20:49.323Z,5.95
2023-03-11T00:23:17.401Z,4.82
2023-03-11T00:25:46.387Z,7.30
2023-03-11T00:28:14.846Z,7.47
2023-03-11T00:30:43.480Z,5.22
2023-03-11T00:33:13.275Z,4.03
2023-03-11T00:35:41.207Z,3.28
2023-03-11T00:38:12.192Z,2.22
2023-03-11T00:40:39.874Z,4.55
2023-03-11T00:43:07.130Z,2.35
2023-03-11T00:45:34.784Z,1.08
2023-03-11T00:48:02.126Z,1.52
2023-03-11T00:50:35.319Z,0.85
2023-03-11T00:53:03.388Z,1.30
2023-03-11T00:55:33.101Z,0.90
2023-03-11T00:58:02.607Z,1.38
2023-03-11T01:00:31.059Z,0.95
2023-03-11T01:02:59.585Z,2.45
2023-03-11T01:05:29.907Z,4.40
2023-03-11T01:07:57.582Z,4.82
2023-03-11T01:10:24.930Z,5.50
2023-03-11T01:12:52.728Z,5.88
2023-03-11T01:15:24.150Z,5.40
2023-03-11T01:17:51.499Z,7.25
2023-03-11T01:20:19.359Z,5.00
2023-03-11T01:22:46.826Z,4.95
2023-03-11T01:25:16.740Z,2.67
2023-03-11T01:27:44.274Z,1.83
2023-03-11T01:30:15.227Z,1.27
2023-03-11T01:32:43.220Z,0.90
2023-03-11T01:35:13.726Z,1.08
2023-03-11T01:37:41.382Z,1.05
2023-03-11T01:40:12.717Z,1.00
2023-03-11T01:42:40.057Z,0.80
2023-03-11T01:45:39.530Z,1.40
2023-03-11T01:48:08.434Z,1.83
2023-03-11T01:50:39.041Z,3.88
2023-03-11T01:53:06.918Z,4.03
2023-03-11T01:55:35.696Z,5.65
2023-03-11T01:58:07.790Z,5.97
2023-03-11T02:00:36.317Z,5.38
2023-03-11T02:03:12.532Z,6.18
2023-03-11T02:05:41.174Z,1.50
2023-03-11T02:08:08.906Z,3.75
2023-03-11T02:10:38.793Z,6.03
2023-03-11T02:13:06.099Z,5.57
2023-03-11T02:15:33.624Z,5.72
2023-03-11T02:18:04.064Z,5.78
2023-03-11T02:20:43.314Z,5.63
2023-03-11T02:23:10.984Z,2.80
2023-03-11T02:25:43.705Z,4.40
2023-03-11T02:28:13.036Z,3.15
2023-03-11T02:30:44.163Z,4.10
2023-03-11T02:33:12.487Z,2.95
2023-03-11T02:35:39.841Z,4.85
2023-03-11T02:38:07.680Z,5.00
2023-03-11T02:40:42.733Z,5.85
2023-03-11T02:43:15.929Z,5.50
2023-03-11T02:45:44.711Z,3.53
2023-03-11T02:48:12.547Z,4.82
2023-03-11T02:50:40.876Z,4.53
2023-03-11T02:53:08.331Z,5.03
2023-03-11T02:55:36.104Z,1.90
2023-03-11T02:58:03.897Z,1.75
2023-03-11T03:00:32.512Z,0.80
2023-03-11T03:02:59.997Z,0.80
2023-03-11T03:05:27.444Z,0.90
2023-03-11T03:07:54.716Z,0.77
2023-03-11T03:10:23.025Z,2.17
2023-03-11T03:12:50.429Z,3.60
2023-03-11T03:15:18.011Z,4.53
2023-03-11T03:17:46.470Z,4.60
2023-03-11T03:20:14.937Z,5.18
2023-03-11T03:22:42.535Z,5.47
2023-03-11T03:25:10.896Z,4.88
2023-03-11T03:27:38.758Z,3.05
2023-03-11T03:30:07.361Z,2.75
2023-03-11T03:32:35.187Z,1.88
2023-03-11T03:35:03.400Z,1.70
2023-03-11T03:37:33.813Z,0.90
2023-03-11T03:40:01.378Z,1.02
2023-03-11T03:42:29.641Z,1.00
2023-03-11T03:44:56.944Z,1.05
2023-03-11T03:47:24.145Z,1.00
2023-03-11T03:49:51.456Z,2.85
2023-03-11T03:52:18.704Z,4.53
2023-03-11T03:54:46.140Z,4.72
2023-03-11T03:57:13.559Z,5.93
2023-03-11T03:59:40.747Z,4.50
2023-03-11T04:02:08.204Z,3.83
2023-03-11T04:04:35.539Z,2.08
2023-03-11T04:07:05.856Z,1.20
2023-03-11T04:09:33.837Z,1.05
2023-03-11T04:12:01.675Z,1.52
2023-03-11T04:14:29.441Z,1.10
2023-03-11T04:16:58.110Z,0.95
2023-03-11T04:19:26.271Z,1.10
2023-03-11T04:21:53.672Z,0.82
2023-03-11T04:24:21.017Z,3.35
2023-03-11T04:26:48.225Z,4.53
2023-03-11T04:29:15.530Z,4.82
2023-03-11T04:31:42.731Z,5.85
2023-03-11T04:34:10.142Z,5.93
2023-03-11T04:36:37.527Z,3.80
2023-03-11T04:39:04.777Z,2.13
2023-03-11T04:41:32.259Z,1.00
2023-03-11T04:44:00.825Z,1.13
2023-03-11T04:46:28.342Z,0.85
2023-03-11T04:48:55.867Z,0.80
2023-03-11T04:51:23.121Z,1.30
2023-03-11T04:53:50.469Z,3.63
2023-03-11T04:56:17.740Z,4.90
2023-03-11T04:58:45.114Z,4.50
2023-03-11T05:01:12.378Z,5.68
2023-03-11T05:03:39.767Z,4.70
2023-03-11T05:06:07.262Z,5.40
2023-03-11T05:08:34.578Z,4.28
2023-03-11T05:11:02.186Z,1.15
2023-03-11T05:13:30.048Z,0.80
2023-03-11T05:15:57.700Z,1.00
2023-03-11T05:18:24.951Z,1.00
2023-03-11T05:20:52.507Z,2.33
2023-03-11T05:23:20.192Z,4.30
2023-03-11T05:25:47.396Z,4.93
2023-03-11T05:28:14.614Z,5.00
2023-03-11T05:30:41.991Z,5.50
2023-03-11T05:33:09.404Z,3.80
2023-03-11T05:35:36.742Z,2.70
2023-03-11T05:38:04.182Z,2.28
2023-03-11T05:40:31.728Z,0.90
2023-03-11T05:42:59.327Z,0.80
2023-03-11T05:45:26.544Z,0.98
2023-03-11T05:47:53.817Z,0.90
2023-03-11T05:50:21.073Z,3.17
2023-03-11T05:52:48.377Z,4.50
2023-03-11T05:55:15.637Z,5.30
2023-03-11T05:57:42.883Z,5.97
2023-03-11T06:00:14.028Z,5.90
2023-03-11T06:02:41.912Z,4.72
2023-03-11T06:05:12.191Z,3.95
2023-03-11T06:07:40.655Z,5.70
2023-03-11T06:10:08.876Z,3.90
2023-03-11T06:12:36.256Z,2.13
2023-03-11T06:15:03.850Z,1.20
2023-03-11T06:17:31.486Z,1.27
2023-03-11T06:19:58.857Z,0.98
2023-03-11T06:22:26.110Z,1.05
2023-03-11T06:24:53.515Z,1.88
2023-03-11T06:27:20.756Z,3.95
2023-03-11T06:29:52.730Z,5.20
2023-03-11T06:32:20.193Z,5.07
2023-03-11T06:34:51.518Z,4.60
2023-03-11T06:37:19.307Z,4.93
2023-03-11T06:39:46.529Z,4.53
2023-03-11T06:42:13.802Z,5.70
2023-03-11T06:44:41.108Z,5.22
2023-03-11T06:47:08.540Z,3.88
2023-03-11T06:49:37.167Z,2.03
2023-03-11T06:52:04.906Z,1.92
2023-03-11T06:54:32.579Z,1.00
2023-03-11T06:56:59.923Z,0.90
2023-03-11T06:59:28.705Z,1.05
2023-03-11T07:01:56.366Z,0.90
2023-03-11T07:04:23.696Z,1.70
2023-03-11T07:06:50.885Z,3.53
2023-03-11T07:09:18.203Z,4.50
2023-03-11T07:11:45.493Z,4.63
2023-03-11T07:14:12.731Z,5.10
2023-03-11T07:16:41.064Z,3.83
2023-03-11T07:19:09.570Z,4.45
2023-03-11T07:21:36.968Z,2.58
2023-03-11T07:24:05.006Z,1.65
2023-03-11T07:26:34.261Z,1.00
2023-03-11T07:29:02.799Z,1.15
2023-03-11T07:31:33.065Z,0.93
2023-03-11T07:34:03.041Z,0.70
2023-03-11T07:36:31.424Z,1.00
2023-03-11T07:39:04.342Z,0.90
2023-03-11T07:41:34.142Z,0.88
2023-03-11T07:44:02.814Z,1.08
2023-03-11T07:46:31.689Z,0.80
2023-03-11T07:48:59.810Z,0.90
2023-03-11T07:51:29.869Z,0.93
2023-03-11T07:53:58.742Z,0.90
2023-03-11T07:56:27.887Z,0.90
2023-03-11T07:58:55.161Z,0.90
2023-03-11T08:01:24.783Z,2.85
2023-03-11T08:03:57.251Z,3.13
2023-03-11T08:06:31.722Z,1.17
2023-03-11T08:09:00.520Z,1.20
2023-03-11T08:11:28.102Z,0.88
2023-03-11T08:13:55.519Z,1.00
2023-03-11T08:16:23.153Z,3.08
2023-03-11T08:18:51.714Z,4.20
2023-03-11T08:21:22.417Z,4.53
2023-03-11T08:23:50.979Z,4.25
2023-03-11T08:26:20.850Z,4.30
2023-03-11T08:28:49.831Z,4.53
2023-03-11T08:31:24.524Z,4.22
2023-03-11T08:33:56.194Z,2.65
2023-03-11T08:36:23.463Z,2.42
2023-03-11T08:38:50.851Z,4.70
2023-03-11T08:41:18.510Z,4.28
2023-03-11T08:43:46.208Z,4.22
2023-03-11T08:46:27.262Z,5.30
2023-03-11T08:48:55.341Z,1.20
2023-03-11T08:51:23.601Z,3.38
2023-03-11T08:53:51.348Z,4.13
2023-03-11T08:56:19.227Z,4.45
2023-03-11T08:58:46.970Z,4.30
2023-03-11T09:01:14.522Z,4.70
2023-03-11T09:03:41.908Z,4.43
2023-03-11T09:06:14.198Z,4.05
2023-03-11T09:08:42.196Z,4.93
2023-03-11T09:11:10.112Z,4.20
2023-03-11T09:13:37.401Z,2.10
2023-03-11T09:16:06.096Z,1.00
2023-03-11T09:18:34.061Z,0.93
2023-03-11T09:21:01.806Z,1.48
2023-03-11T09:23:30.391Z,0.90
2023-03-11T09:25:57.919Z,1.00
2023-03-11T09:28:25.142Z,1.70
2023-03-11T09:30:52.454Z,3.63
2023-03-11T09:33:19.881Z,4.28
2023-03-11T09:35:47.430Z,4.10
2023-03-11T09:38:14.920Z,5.72
2023-03-11T09:41:25.245Z,5.50
2023-03-11T09:44:11.671Z,3.30
2023-03-11T09:46:44.995Z,3.55
2023-03-11T09:49:19.461Z,5.30
2023-03-11T09:52:13.476Z,4.53
2023-03-11T09:54:48.389Z,3.42
2023-03-11T09:57:36.893Z,7.60
2023-03-11T10:00:06.937Z,1.10
2023-03-11T10:02:37.403Z,1.00
2023-03-11T10:05:14.431Z,0.98
2023-03-11T10:07:44.395Z,3.15
2023-03-11T10:10:14.900Z,3.42
2023-03-11T10:13:30.313Z,3.58
2023-03-11T10:16:21.523Z,0.90
2023-03-11T10:19:00.113Z,4.13
2023-03-11T10:21:46.246Z,1.10
2023-03-11T10:24:15.226Z,5.35
2023-03-11T10:26:54.059Z,2.85
2023-03-11T10:29:30.063Z,4.72
2023-03-11T10:32:13.779Z,1.00
2023-03-11T10:34:45.100Z,3.47
2023-03-11T10:37:17.294Z,3.05
2023-03-11T10:39:48.031Z,4.50
2023-03-11T10:42:25.408Z,4.40
2023-03-11T10:44:55.706Z,4.03
2023-03-11T10:47:25.587Z,3.95
2023-03-11T10:49:53.061Z,3.90
2023-03-11T10:52:20.885Z,3.72
2023-03-11T10:54:49.670Z,3.90
2023-03-11T10:57:37.499Z,4.90
2023-03-11T11:00:17.566Z,0.93
2023-03-11T11:02:58.503Z,3.20
2023-03-11T11:05:28.261Z,2.25
2023-03-11T11:08:24.730Z,2.55
2023-03-11T11:10:55.560Z,3.85
2023-03-11T11:13:25.543Z,4.05
2023-03-11T11:16:01.839Z,3.10
2023-03-11T11:18:35.675Z,1.30
2023-03-11T11:21:52.645Z,1.08
2023-03-11T11:24:28.228Z,4.28
2023-03-11T11:27:07.853Z,2.10
2023-03-11T11:29:35.651Z,1.00
2023-03-11T11:32:29.541Z,1.00
2023-03-11T11:35:06.343Z,1.25
2023-03-11T11:37:36.428Z,1.20
2023-03-11T11:40:27.379Z,0.90
2023-03-11T11:43:00.908Z,3.08
2023-03-11T11:45:38.554Z,1.00
2023-03-11T11:48:14.752Z,0.80
2023-03-11T11:50:45.689Z,2.97
2023-03-11T11:53:28.229Z,3.03
2023-03-11T11:55:55.739Z,2.20
2023-03-11T11:58:23.225Z,3.22
2023-03-11T12:01:06.234Z,3.55
2023-03-11T12:03:43.838Z,1.05
2023-03-11T12:06:28.220Z,2.55
2023-03-11T12:09:06.149Z,2.47
2023-03-11T12:11:48.220Z,1.00
2023-03-11T12:14:24.664Z,7.03
2023-03-11T12:16:58.450Z,3.10
2023-03-11T12:19:40.158Z,3.00
2023-03-11T12:22:26.933Z,0.98
2023-03-11T12:24:57.052Z,3.35
2023-03-11T12:27:28.357Z,2.90
2023-03-11T12:30:06.488Z,2.45
2023-03-11T12:32:45.019Z,1.10
2023-03-11T12:35:32.784Z,2.78
2023-03-11T12:38:35.407Z,1.00
2023-03-11T12:41:06.032Z,1.30
2023-03-11T12:43:36.312Z,0.80
2023-03-11T12:46:06.265Z,0.90
2023-03-11T12:48:46.356Z,1.10
2023-03-11T12:51:43.669Z,2.08
2023-03-11T12:54:34.567Z,1.95
2023-03-11T12:57:25.073Z,1.60
2023-03-11T13:00:18.562Z,4.00
2023-03-11T13:03:00.629Z,3.00
2023-03-11T13:05:46.959Z,1.15
2023-03-11T13:08:22.665Z,3.55
2023-03-11T13:10:52.297Z,3.70
2023-03-11T13:13:32.904Z,3.80
2023-03-11T13:16:15.475Z,1.55
2023-03-11T13:18:44.581Z,2.80
2023-03-11T13:21:38.388Z,3.30
2023-03-11T13:24:25.977Z,1.95
2023-03-11T13:26:59.760Z,3.27
2023-03-11T13:29:27.357Z,1.93
2023-03-11T13:32:28.059Z,3.03
2023-03-11T13:35:00.730Z,2.47
2023-03-11T13:37:35.702Z,1.30
2023-03-11T13:40:40.285Z,1.00
2023-03-11T13:43:15.717Z,1.10
2023-03-11T13:46:08.080Z,2.20
2023-03-11T13:48:49.743Z,0.80
2023-03-11T13:51:18.543Z,3.37
2023-03-11T13:53:54.093Z,2.70
2023-03-11T13:56:29.832Z,3.20
2023-03-11T13:59:22.981Z,1.50
2023-03-11T14:02:08.910Z,3.03
2023-03-11T14:04:37.855Z,1.10
2023-03-11T14:07:35.802Z,0.90
2023-03-11T14:10:12.251Z,1.10
2023-03-11T14:12:40.163Z,1.50
2023-03-11T14:15:14.605Z,1.00
2023-03-11T14:17:41.964Z,2.63
2023-03-11T14:20:25.663Z,1.60
2023-03-11T14:22:55.244Z,3.10
2023-03-11T14:25:31.407Z,2.80
2023-03-11T14:28:02.416Z,0.83
2023-03-11T14:30:32.561Z,1.00
2023-03-11T14:33:02.668Z,0.90
2023-03-11T14:35:31.401Z,0.90
2023-03-11T14:37:58.924Z,0.90
2023-03-11T14:40:31.732Z,2.03
2023-03-11T14:43:04.938Z,0.77
2023-03-11T14:45:37.723Z,0.80
2023-03-11T14:48:20.078Z,0.93
2023-03-11T14:50:49.764Z,2.83
2023-03-11T14:53:38.576Z,3.23
2023-03-11T14:56:09.321Z,0.80
2023-03-11T14:59:07.562Z,0.97
2023-03-11T15:01:42.737Z,1.60
2023-03-11T15:04:24.429Z,1.37
2023-03-11T15:06:51.709Z,3.13
2023-03-11T15:09:20.586Z,2.83
2023-03-11T15:11:55.818Z,3.80
2023-03-11T15:14:26.538Z,2.97
2023-03-11T15:16:55.117Z,3.13
2023-03-11T15:19:29.171Z,5.27
2023-03-11T15:22:22.125Z,1.97
2023-03-11T15:24:55.162Z,3.63
2023-03-11T15:27:42.701Z,3.23
2023-03-11T15:30:21.573Z,1.40
2023-03-11T15:32:49.437Z,3.80
2023-03-11T15:35:18.806Z,3.83
2023-03-11T15:37:47.617Z,4.27
2023-03-11T15:40:43.964Z,2.13
2023-03-11T15:43:15.652Z,2.05
2023-03-11T15:45:43.950Z,3.30
2023-03-11T15:48:12.237Z,1.42
2023-03-11T15:51:00.427Z,1.20
2023-03-11T15:53:28.891Z,1.83
2023-03-11T15:56:06.617Z,3.63
2023-03-11T15:58:36.459Z,0.87
2023-03-11T16:01:04.308Z,1.07
2023-03-11T16:03:31.722Z,0.80
2023-03-11T16:05:59.084Z,1.57
2023-03-11T16:08:26.490Z,2.43
2023-03-11T16:10:53.734Z,3.43
2023-03-11T16:13:21.833Z,2.80
2023-03-11T16:15:49.414Z,4.40
2023-03-11T16:18:16.800Z,3.53
2023-03-11T16:20:48.436Z,2.47
2023-03-11T16:23:23.189Z,2.50
2023-03-11T16:25:51.141Z,3.90
2023-03-11T16:28:18.482Z,3.33
2023-03-11T16:30:46.907Z,2.90
2023-03-11T16:33:14.172Z,3.17
2023-03-11T16:35:41.633Z,1.67
2023-03-11T16:38:09.838Z,0.90
2023-03-11T16:40:37.558Z,0.97
2023-03-11T16:43:10.460Z,0.90
2023-03-11T16:45:38.583Z,0.97
2023-03-11T16:48:07.075Z,0.90
2023-03-11T16:50:36.883Z,0.83
2023-03-11T16:53:05.256Z,1.40
2023-03-11T16:55:32.677Z,0.87
2023-03-11T16:58:00.016Z,1.30
2023-03-11T17:00:27.380Z,3.53
2023-03-11T17:02:55.352Z,3.17
2023-03-11T17:05:23.052Z,3.25
2023-03-11T17:07:54.526Z,4.50
2023-03-11T17:10:24.137Z,3.72
2023-03-11T17:12:51.342Z,3.63
2023-03-11T17:15:18.975Z,4.03
2023-03-11T17:17:46.125Z,3.40
2023-03-11T17:20:13.719Z,1.63
2023-03-11T17:22:41.247Z,2.07
2023-03-11T17:25:09.000Z,0.90
2023-03-11T17:27:36.644Z,0.80
2023-03-11T17:30:06.430Z,0.90
2023-03-11T17:32:34.288Z,0.88
2023-03-11T17:35:01.895Z,1.20
2023-03-11T17:37:29.259Z,2.45
2023-03-11T17:39:56.646Z,3.42
2023-03-11T17:42:24.254Z,3.45
2023-03-11T17:44:52.296Z,4.97
2023-03-11T17:47:20.489Z,3.55
2023-03-11T17:49:49.362Z,4.20
2023-03-11T17:52:16.646Z,3.53
2023-03-11T17:54:44.445Z,1.88
2023-03-11T17:57:12.137Z,0.90
2023-03-11T17:59:39.720Z,0.93
2023-03-11T18:02:08.605Z,0.90
2023-03-11T18:04:36.087Z,0.90
2023-03-11T18:07:03.472Z,0.90
2023-03-11T18:09:30.810Z,2.53
2023-03-11T18:11:58.127Z,3.75
2023-03-11T18:14:25.672Z,3.60
2023-03-11T18:16:52.889Z,4.50
2023-03-11T18:19:20.277Z,3.88
2023-03-11T18:21:47.516Z,2.97
2023-03-11T18:24:14.914Z,2.00
2023-03-11T18:26:42.491Z,0.93
2023-03-11T18:29:10.028Z,0.90
2023-03-11T18:31:39.262Z,0.98
2023-03-11T18:34:13.575Z,0.90
2023-03-11T18:36:42.535Z,1.17
2023-03-11T18:39:14.306Z,1.13
2023-03-11T18:41:43.122Z,1.00
2023-03-11T18:44:11.482Z,1.00
2023-03-11T18:46:42.886Z,0.98
2023-03-11T18:49:14.006Z,1.02
2023-03-11T18:51:41.696Z,1.10
2023-03-11T18:54:09.107Z,1.20
2023-03-11T18:56:36.768Z,1.00
2023-03-11T18:59:04.319Z,1.20
2023-03-11T19:01:32.206Z,2.83
2023-03-11T19:04:00.339Z,4.25
2023-03-11T19:06:28.743Z,3.95
2023-03-11T19:08:57.251Z,3.60
2023-03-11T19:11:25.280Z,4.00
2023-03-11T19:13:53.190Z,4.80
2023-03-11T19:16:23.753Z,3.28
2023-03-11T19:18:54.173Z,4.57
2023-03-11T19:21:22.369Z,5.57
2023-03-11T19:23:51.994Z,2.35
2023-03-11T19:26:20.154Z,2.92
2023-03-11T19:28:48.276Z,3.53
2023-03-11T19:31:15.903Z,1.83
2023-03-11T19:33:47.214Z,1.02
2023-03-11T19:36:14.803Z,1.20
2023-03-11T19:38:42.464Z,0.82
2023-03-11T19:41:15.538Z,1.08
2023-03-11T19:43:43.191Z,0.98
2023-03-11T19:46:17.410Z,0.80
2023-03-11T19:48:45.077Z,1.08
2023-03-11T19:51:13.003Z,1.20
2023-03-11T19:53:43.683Z,0.70
2023-03-11T19:56:11.183Z,1.10
2023-03-11T19:58:38.664Z,0.95
2023-03-11T20:01:05.960Z,3.05
2023-03-11T20:03:33.373Z,3.85
2023-03-11T20:06:05.626Z,4.93
2023-03-11T20:08:36.979Z,3.65
2023-03-11T20:11:05.480Z,4.18
2023-03-11T20:13:34.396Z,3.85
2023-03-11T20:16:09.962Z,4.40
2023-03-11T20:18:37.471Z,2.75
2023-03-11T20:21:06.574Z,4.45
2023-03-11T20:23:34.590Z,3.75
2023-03-11T20:26:09.500Z,5.18
2023-03-11T20:28:36.892Z,3.35
2023-03-11T20:31:16.041Z,4.20
2023-03-11T20:33:44.138Z,1.00
2023-03-11T20:36:14.781Z,1.00
2023-03-11T20:38:42.546Z,1.15
2023-03-11T20:41:10.852Z,2.17
2023-03-11T20:43:39.366Z,8.63
2023-03-11T20:46:08.105Z,4.13
2023-03-11T20:48:36.411Z,3.83
2023-03-11T20:51:10.525Z,5.10
2023-03-11T20:53:38.900Z,3.72
2023-03-11T20:56:12.400Z,3.97
2023-03-11T20:58:39.970Z,3.10
2023-03-11T21:01:15.606Z,4.32
2023-03-11T21:03:43.581Z,1.20
2023-03-11T21:06:29.654Z,2.45
2023-03-11T21:08:58.852Z,4.63
2023-03-11T21:11:27.077Z,2.92
2023-03-11T21:13:55.499Z,3.03
2023-03-11T21:16:24.040Z,0.90
2023-03-11T21:18:51.778Z,1.02
2023-03-11T21:21:19.796Z,1.30
2023-03-11T21:23:48.309Z,0.95
2023-03-11T21:26:17.870Z,1.00
2023-03-11T21:28:47.175Z,1.30
2023-03-11T21:31:20.992Z,3.17
2023-03-11T21:33:49.486Z,0.88
2023-03-11T21:36:17.469Z,1.08
2023-03-11T21:38:46.301Z,2.85
2023-03-11T21:41:16.451Z,3.25
2023-03-11T21:43:44.191Z,3.58
2023-03-11T21:46:14.587Z,4.60
2023-03-11T21:48:42.570Z,5.32
2023-03-11T21:51:10.013Z,3.75
2023-03-11T21:53:37.616Z,4.30
2023-03-11T21:56:05.374Z,5.32
2023-03-11T21:58:34.018Z,4.22
2023-03-11T22:01:01.863Z,2.50
2023-03-11T22:03:29.672Z,4.15
2023-03-11T22:06:02.026Z,1.00
2023-03-11T22:08:29.662Z,1.30
2023-03-11T22:10:57.462Z,1.17
2023-03-11T22:13:25.608Z,1.15
2023-03-11T22:15:53.103Z,2.10
2023-03-11T22:18:21.133Z,1.88
2023-03-11T22:20:48.531Z,6.95
2023-03-11T22:23:15.903Z,4.00
2023-03-11T22:25:43.213Z,4.60
2023-03-11T22:28:13.129Z,12.60
2023-03-11T22:30:40.628Z,6.28
2023-03-11T22:33:12.294Z,3.67
2023-03-11T22:35:40.007Z,3.60
2023-03-11T22:38:07.691Z,4.47
2023-03-11T22:40:35.892Z,3.05
2023-03-11T22:43:03.529Z,2.95
2023-03-11T22:45:31.237Z,0.80
2023-03-11T22:47:58.625Z,0.85
2023-03-11T22:50:26.194Z,1.25
2023-03-11T22:52:53.696Z,2.83
2023-03-11T22:55:20.882Z,4.10
2023-03-11T22:57:48.185Z,5.13
2023-03-11T23:00:22.008Z,5.13
2023-03-11T23:02:55.218Z,4.40
2023-03-11T23:05:23.443Z,4.43
2023-03-11T23:07:51.278Z,4.72
2023-03-11T23:10:21.229Z,5.03
2023-03-11T23:12:48.835Z,5.32
2023-03-11T23:15:18.649Z,4.18
2023-03-11T23:17:46.490Z,4.63
2023-03-11T23:20:16.390Z,5.88
2023-03-11T23:22:43.904Z,4.20
2023-03-11T23:25:15.475Z,11.50
2023-03-11T23:27:44.375Z,1.40
2023-03-11T23:30:14.084Z,2.10
2023-03-11T23:32:41.807Z,1.48
2023-03-11T23:35:10.202Z,1.65
2023-03-11T23:37:38.113Z,1.10
2023-03-11T23:40:06.085Z,2.75
2023-03-11T23:42:35.225Z,0.95
2023-03-11T23:45:04.433Z,2.10
2023-03-11T23:47:32.799Z,2.22
2023-03-11T23:50:02.833Z,4.50
2023-03-11T23:52:31.389Z,3.22
2023-03-11T23:54:59.116Z,5.05
2023-03-11T23:57:26.799Z,4.05
2023-03-11T23:59:54.237Z,9.05
